createdAt,value
2017-06-08T00:01:04.109Z,101035
2017-06-08T00:03:32.292Z,101026
2017-06-08T00:06:00.438Z,101031
2017-06-08T00:08:28.626Z,101030
2017-06-08T00:10:56.792Z,101029
2017-06-08T00:13:24.976Z,101038
2017-06-08T00:15:53.188Z,101041
2017-06-08T00:18:22.117Z,101043
2017-06-08T00:20:50.289Z,101034
2017-06-08T00:23:18.465Z,101042
2017-06-08T00:25:46.629Z,101042
2017-06-08T00:28:14.774Z,101045
2017-06-08T00:30:43.718Z,101049
2017-06-08T00:33:11.907Z,101044
2017-06-08T00:35:40.064Z,101053
2017-06-08T00:38:08.243Z,101062
2017-06-08T00:40:36.396Z,101045
2017-06-08T00:43:04.564Z,101052
2017-06-08T00:45:32.870Z,101060
2017-06-08T00:48:01.045Z,101048
2017-06-08T00:50:29.196Z,101057
2017-06-08T00:52:57.377Z,101057
2017-06-08T00:55:25.526Z,101052
2017-06-08T00:57:54.438Z,101043
2017-06-08T01:00:22.616Z,101056
2017-06-08T01:02:50.775Z,101062
2017-06-08T01:05:18.942Z,101061
2017-06-08T01:07:47.146Z,101056
2017-06-08T01:10:15.290Z,101064
2017-06-08T01:12:44.213Z,101061
2017-06-08T01:15:12.417Z,101070
2017-06-08T01:17:40.567Z,101069
2017-06-08T01:20:08.746Z,101076
2017-06-08T01:22:36.935Z,101084
2017-06-08T01:25:05.120Z,101082
2017-06-08T01:27:33.286Z,101084
2017-06-08T01:30:01.461Z,101088
2017-06-08T01:32:29.618Z,101093
2017-06-08T01:34:57.767Z,101096
2017-06-08T01:37:25.967Z,101096
2017-06-08T01:39:54.117Z,101099
2017-06-08T01:42:22.266Z,101102
2017-06-08T01:44:50.460Z,101112
2017-06-08T01:47:18.609Z,101104
2017-06-08T01:49:47.540Z,101104
2017-06-08T01:52:15.711Z,101103
2017-06-08T01:54:43.854Z,101109
2017-06-08T01:57:12.777Z,101115
2017-06-08T01:59:41.109Z,101109
2017-06-08T02:02:09.266Z,101122
2017-06-08T02:04:37.437Z,101104
2017-06-08T02:07:05.647Z,101115
2017-06-08T02:09:34.587Z,101119
2017-06-08T02:12:02.739Z,101115
2017-06-08T02:14:30.922Z,101114
2017-06-08T02:16:59.091Z,101125
2017-06-08T02:19:27.233Z,101121
2017-06-08T02:21:55.410Z,101131
2017-06-08T02:24:23.573Z,101132
2017-06-08T02:26:51.738Z,101140
2017-06-08T02:29:19.937Z,101135
2017-06-08T02:31:48.882Z,101139
2017-06-08T02:34:17.042Z,101138
2017-06-08T02:36:45.226Z,101142
2017-06-08T02:39:13.392Z,101134
2017-06-08T02:41:41.543Z,101136
2017-06-08T02:44:09.755Z,101150
2017-06-08T02:46:37.928Z,101154
2017-06-08T02:49:06.082Z,101143
2017-06-08T02:51:34.262Z,101139
2017-06-08T02:54:02.416Z,101150
2017-06-08T02:56:30.588Z,101143
2017-06-08T02:58:58.800Z,101148
2017-06-08T03:01:26.970Z,101150
2017-06-08T03:03:55.146Z,101150
2017-06-08T03:06:23.358Z,101149
2017-06-08T03:08:51.509Z,101155
2017-06-08T03:11:19.663Z,101160
2017-06-08T03:13:47.837Z,101152
2017-06-08T03:16:15.995Z,101164
2017-06-08T03:18:44.168Z,101166
2017-06-08T03:21:12.372Z,101157
2017-06-08T03:23:40.526Z,101159
2017-06-08T03:26:08.674Z,101164
2017-06-08T03:28:36.856Z,101165
2017-06-08T03:31:05.048Z,101175
2017-06-08T03:33:33.199Z,101173
2017-06-08T03:36:01.377Z,101174
2017-06-08T03:38:30.319Z,101178
2017-06-08T03:40:58.477Z,101178
2017-06-08T03:43:26.677Z,101183
2017-06-08T03:45:54.826Z,101194
2017-06-08T03:48:22.991Z,101180
2017-06-08T03:50:51.192Z,101180
2017-06-08T03:53:19.332Z,101182
2017-06-08T03:55:47.506Z,101182
2017-06-08T03:58:16.539Z,101174
2017-06-08T04:00:44.687Z,101179
2017-06-08T04:03:12.847Z,101182
2017-06-08T04:05:41.025Z,101179
2017-06-08T04:08:09.196Z,101169
2017-06-08T04:10:37.370Z,101184
2017-06-08T04:13:06.337Z,101190
2017-06-08T04:15:34.493Z,101193
2017-06-08T04:18:02.665Z,101194
2017-06-08T04:20:30.851Z,101181
2017-06-08T04:22:59.029Z,101191
2017-06-08T04:25:27.185Z,101198
2017-06-08T04:27:55.380Z,101211
2017-06-08T04:30:23.535Z,101204
2017-06-08T04:32:51.700Z,101192
2017-06-08T04:35:19.871Z,101207
2017-06-08T04:37:48.045Z,101178
2017-06-08T04:40:16.216Z,101199
2017-06-08T04:42:44.420Z,101206
2017-06-08T04:45:12.592Z,101203
2017-06-08T04:47:40.758Z,101201
2017-06-08T04:50:08.956Z,101205
2017-06-08T04:52:37.122Z,101216
2017-06-08T04:55:05.300Z,101203
2017-06-08T04:57:33.485Z,101205
2017-06-08T05:00:01.654Z,101213
2017-06-08T05:02:29.840Z,101213
2017-06-08T05:04:58.007Z,101212
2017-06-08T05:07:26.154Z,101213
2017-06-08T05:09:54.339Z,101213
2017-06-08T05:12:22.494Z,101202
2017-06-08T05:14:50.692Z,101209
2017-06-08T05:17:18.872Z,101209
2017-06-08T05:19:47.041Z,101215
2017-06-08T05:22:15.255Z,101217
2017-06-08T05:24:43.517Z,101209
2017-06-08T05:27:11.721Z,101208
2017-06-08T05:29:39.867Z,101214
2017-06-08T05:32:08.804Z,101201
2017-06-08T05:34:36.992Z,101209
2017-06-08T05:37:05.160Z,101218
2017-06-08T05:39:33.369Z,101214
2017-06-08T05:42:01.551Z,101208
2017-06-08T05:44:29.698Z,101218
2017-06-08T05:46:57.863Z,101210
2017-06-08T05:49:26.018Z,101216
2017-06-08T05:51:54.217Z,101212
2017-06-08T05:54:22.384Z,101230
2017-06-08T05:56:50.557Z,101220
2017-06-08T05:59:18.718Z,101235
2017-06-08T06:01:46.873Z,101228
2017-06-08T06:04:15.070Z,101227
2017-06-08T06:06:43.225Z,101234
2017-06-08T06:09:11.396Z,101233
2017-06-08T06:11:39.557Z,101224
2017-06-08T06:14:08.488Z,101240
2017-06-08T06:16:36.689Z,101226
2017-06-08T06:19:04.856Z,101224
2017-06-08T06:21:33.022Z,101232
2017-06-08T06:24:01.198Z,101229
2017-06-08T06:26:29.350Z,101234
2017-06-08T06:28:57.530Z,101236
2017-06-08T06:31:25.701Z,101243
2017-06-08T06:33:53.878Z,101246
2017-06-08T06:36:22.037Z,101254
2017-06-08T06:38:50.210Z,101257
2017-06-08T06:41:18.409Z,101256
2017-06-08T06:43:46.587Z,101246
2017-06-08T06:46:15.824Z,101246
2017-06-08T06:48:44.037Z,101239
2017-06-08T06:51:12.218Z,101253
2017-06-08T06:53:40.420Z,101250
2017-06-08T06:56:08.592Z,101246
2017-06-08T06:58:36.741Z,101252
2017-06-08T07:01:04.911Z,101267
2017-06-08T07:03:33.089Z,101259
2017-06-08T07:06:01.270Z,101278
2017-06-08T07:08:29.431Z,101259
2017-06-08T07:10:57.603Z,101262
2017-06-08T07:13:25.793Z,101276
2017-06-08T07:15:53.947Z,101281
2017-06-08T07:18:22.174Z,101280
2017-06-08T07:20:50.339Z,101279
2017-06-08T07:23:18.500Z,101286
2017-06-08T07:25:46.688Z,101285
2017-06-08T07:28:14.862Z,101290
2017-06-08T07:30:43.062Z,101299
2017-06-08T07:33:11.230Z,101297
2017-06-08T07:35:39.400Z,101287
2017-06-08T07:38:07.592Z,101293
2017-06-08T07:40:35.741Z,101282
2017-06-08T07:43:03.885Z,101290
2017-06-08T07:45:32.054Z,101295
2017-06-08T07:48:00.206Z,101298
2017-06-08T07:50:29.176Z,101304
2017-06-08T07:52:57.321Z,101308
2017-06-08T07:55:25.497Z,101302
2017-06-08T07:57:53.680Z,101310
2017-06-08T08:00:21.829Z,101305
2017-06-08T08:03:09.008Z,101311
2017-06-08T08:05:37.158Z,101315
2017-06-08T08:08:05.302Z,101318
2017-06-08T08:10:33.471Z,101323
2017-06-08T08:13:01.642Z,101327
2017-06-08T08:15:29.853Z,101320
2017-06-08T08:17:58.025Z,101319
2017-06-08T08:20:26.202Z,101318
2017-06-08T08:22:54.384Z,101332
2017-06-08T08:25:22.530Z,101325
2017-06-08T08:27:50.727Z,101322
2017-06-08T08:30:18.900Z,101327
2017-06-08T08:32:47.061Z,101332
2017-06-08T08:35:15.232Z,101333
2017-06-08T08:37:43.388Z,101331
2017-06-08T08:40:11.594Z,101324
2017-06-08T08:42:39.747Z,101331
2017-06-08T08:45:07.912Z,101339
2017-06-08T08:47:36.075Z,101340
2017-06-08T08:50:04.230Z,101343
2017-06-08T08:52:33.182Z,101341
2017-06-08T08:55:01.330Z,101341
2017-06-08T08:57:29.495Z,101337
2017-06-08T08:59:57.681Z,101335
2017-06-08T09:02:25.826Z,101338
2017-06-08T09:04:54.781Z,101336
2017-06-08T09:07:22.929Z,101357
2017-06-08T09:09:51.078Z,101344
2017-06-08T09:12:19.238Z,101346
2017-06-08T09:14:48.155Z,101344
2017-06-08T09:17:16.350Z,101342
2017-06-08T09:19:44.519Z,101355
2017-06-08T09:22:12.669Z,101347
2017-06-08T09:24:40.829Z,101338
2017-06-08T09:27:09.759Z,101334
2017-06-08T09:29:37.946Z,101341
2017-06-08T09:32:06.112Z,101337
2017-06-08T09:34:34.278Z,101338
2017-06-08T09:37:02.446Z,101338
2017-06-08T09:39:30.610Z,101331
2017-06-08T09:41:58.821Z,101338
2017-06-08T09:44:26.970Z,101347
2017-06-08T09:46:55.124Z,101345
2017-06-08T09:49:24.067Z,101350
2017-06-08T09:51:52.221Z,101348
2017-06-08T09:54:20.410Z,101355
2017-06-08T09:56:48.565Z,101342
2017-06-08T09:59:16.723Z,101344
2017-06-08T10:01:44.908Z,101357
2017-06-08T10:04:13.076Z,101350
2017-06-08T10:06:41.262Z,101367
2017-06-08T10:09:09.413Z,101359
2017-06-08T10:11:38.344Z,101360
2017-06-08T10:14:06.509Z,101373
2017-06-08T10:16:34.684Z,101368
2017-06-08T10:19:02.866Z,101364
2017-06-08T10:21:31.032Z,101364
2017-06-08T10:23:59.187Z,101363
2017-06-08T10:26:27.378Z,101356
2017-06-08T10:28:55.530Z,101356
2017-06-08T10:31:24.502Z,101364
2017-06-08T10:33:52.669Z,101356
2017-06-08T10:36:20.826Z,101365
2017-06-08T10:38:49.017Z,101344
2017-06-08T10:41:17.173Z,101370
2017-06-08T10:43:45.357Z,101352
2017-06-08T10:46:13.532Z,101369
2017-06-08T10:48:41.708Z,101351
2017-06-08T10:51:09.878Z,101347
2017-06-08T10:53:38.051Z,101362
2017-06-08T10:56:07.214Z,101360
2017-06-08T10:58:35.358Z,101360
2017-06-08T11:01:04.296Z,101359
2017-06-08T11:03:32.485Z,101356
2017-06-08T11:06:00.626Z,101372
2017-06-08T11:08:28.803Z,101363
2017-06-08T11:10:56.975Z,101364
2017-06-08T11:13:25.125Z,101357
2017-06-08T11:15:54.083Z,101365
2017-06-08T11:18:22.254Z,101356
2017-06-08T11:20:50.430Z,101369
2017-06-08T11:23:18.575Z,101369
2017-06-08T11:25:46.726Z,101355
2017-06-08T11:28:14.912Z,101365
2017-06-08T11:30:43.059Z,101363
2017-06-08T11:33:12.028Z,101366
2017-06-08T11:35:40.197Z,101364
2017-06-08T11:38:08.346Z,101365
2017-06-08T11:40:36.524Z,101375
2017-06-08T11:43:04.694Z,101383
2017-06-08T11:45:32.870Z,101374
2017-06-08T11:48:01.029Z,101382
2017-06-08T11:50:29.177Z,101370
2017-06-08T11:52:58.107Z,101372
2017-06-08T11:55:26.370Z,101378
2017-06-08T11:57:54.572Z,101370
2017-06-08T12:00:22.721Z,101374
2017-06-08T12:02:50.870Z,101371
2017-06-08T12:05:19.825Z,101371
2017-06-08T12:07:47.975Z,101368
2017-06-08T12:10:16.177Z,101373
2017-06-08T12:12:44.328Z,101382
2017-06-08T12:15:12.514Z,101373
2017-06-08T12:17:40.699Z,101365
2017-06-08T12:20:08.851Z,101348
2017-06-08T12:22:38.939Z,101361
2017-06-08T12:25:07.092Z,101363
2017-06-08T12:27:36.026Z,101368
2017-06-08T12:30:04.205Z,101351
2017-06-08T12:32:32.362Z,101351
2017-06-08T12:35:00.555Z,101349
2017-06-08T12:37:28.725Z,101355
2017-06-08T12:39:56.879Z,101349
2017-06-08T12:42:25.053Z,101350
2017-06-08T12:44:53.216Z,101344
2017-06-08T12:47:22.176Z,101343
2017-06-08T12:49:50.329Z,101343
2017-06-08T12:52:18.483Z,101350
2017-06-08T12:54:46.671Z,101343
2017-06-08T12:57:14.831Z,101349
2017-06-08T12:59:43.043Z,101342
2017-06-08T13:02:11.231Z,101352
2017-06-08T13:04:39.412Z,101348
2017-06-08T13:07:07.593Z,101351
2017-06-08T13:09:36.533Z,101351
2017-06-08T13:12:04.718Z,101351
2017-06-08T13:14:32.888Z,101341
2017-06-08T13:17:01.070Z,101348
2017-06-08T13:19:29.242Z,101343
2017-06-08T13:21:57.394Z,101347
2017-06-08T13:24:25.596Z,101349
2017-06-08T13:26:53.773Z,101349
2017-06-08T13:29:21.935Z,101347
2017-06-08T13:31:50.132Z,101345
2017-06-08T13:34:18.310Z,101346
2017-06-08T13:36:46.503Z,101355
2017-06-08T13:39:14.662Z,101343
2017-06-08T13:41:42.840Z,101347
2017-06-08T13:44:11.066Z,101336
2017-06-08T13:46:39.236Z,101344
2017-06-08T13:49:07.421Z,101339
2017-06-08T13:51:35.597Z,101337
2017-06-08T13:54:03.772Z,101335
2017-06-08T13:56:31.963Z,101334
2017-06-08T13:59:00.146Z,101329
2017-06-08T14:01:28.329Z,101320
2017-06-08T14:03:56.500Z,101326
2017-06-08T14:06:24.666Z,101328
2017-06-08T14:08:52.860Z,101323
2017-06-08T14:11:21.039Z,101310
2017-06-08T14:13:49.252Z,101309
2017-06-08T14:16:17.410Z,101308
2017-06-08T14:18:46.337Z,101306
2017-06-08T14:21:14.528Z,101298
2017-06-08T14:23:42.699Z,101300
2017-06-08T14:26:10.892Z,101293
2017-06-08T14:28:39.061Z,101302
2017-06-08T14:31:07.219Z,101291
2017-06-08T14:33:35.399Z,101293
2017-06-08T14:36:03.549Z,101288
2017-06-08T14:38:31.758Z,101284
2017-06-08T14:40:59.925Z,101273
2017-06-08T14:43:28.106Z,101276
2017-06-08T14:45:56.329Z,101273
2017-06-08T14:48:25.263Z,101268
2017-06-08T14:50:53.451Z,101268
2017-06-08T14:53:21.609Z,101259
2017-06-08T14:55:49.794Z,101267
2017-06-08T14:58:17.962Z,101256
2017-06-08T15:00:46.166Z,101254
2017-06-08T15:03:14.418Z,101249
2017-06-08T15:05:42.799Z,101251
2017-06-08T15:08:11.009Z,101235
2017-06-08T15:10:39.178Z,101242
2017-06-08T15:13:07.330Z,101235
2017-06-08T15:15:35.533Z,101232
2017-06-08T15:18:03.689Z,101217
2017-06-08T15:20:31.913Z,101238
2017-06-08T15:23:00.109Z,101233
2017-06-08T15:25:28.282Z,101233
2017-06-08T15:27:56.436Z,101228
2017-06-08T15:30:24.634Z,101228
2017-06-08T15:32:52.798Z,101222
2017-06-08T15:35:20.980Z,101221
2017-06-08T15:37:49.126Z,101225
2017-06-08T15:40:18.066Z,101221
2017-06-08T15:42:46.250Z,101220
2017-06-08T15:45:14.402Z,101214
2017-06-08T15:47:42.609Z,101208
2017-06-08T15:50:10.772Z,101210
2017-06-08T15:52:38.924Z,101207
2017-06-08T15:55:07.109Z,101196
2017-06-08T15:57:35.281Z,101199
2017-06-08T16:00:03.482Z,101202
2017-06-08T16:02:32.059Z,101194
2017-06-08T16:05:00.247Z,101197
2017-06-08T16:07:28.436Z,101186
2017-06-08T16:09:56.612Z,101183
2017-06-08T16:12:24.824Z,101176
2017-06-08T16:14:53.747Z,101169
2017-06-08T16:17:21.943Z,101175
2017-06-08T16:19:50.122Z,101176
2017-06-08T16:22:18.296Z,101160
2017-06-08T16:24:46.523Z,101168
2017-06-08T16:27:14.730Z,101164
2017-06-08T16:29:42.925Z,101157
2017-06-08T16:32:11.100Z,101158
2017-06-08T16:34:39.265Z,101159
2017-06-08T16:37:07.570Z,101156
2017-06-08T16:39:35.723Z,101153
2017-06-08T16:42:03.897Z,101157
2017-06-08T16:44:32.066Z,101151
2017-06-08T16:47:00.258Z,101151
2017-06-08T16:49:28.466Z,101141
2017-06-08T16:51:56.625Z,101142
2017-06-08T16:54:24.803Z,101146
2017-06-08T16:56:52.996Z,101134
2017-06-08T16:59:21.154Z,101134
2017-06-08T17:01:49.337Z,101141
2017-06-08T17:04:17.496Z,101138
2017-06-08T17:06:46.456Z,101132
2017-06-08T17:09:14.633Z,101138
2017-06-08T17:11:42.818Z,101135
2017-06-08T17:14:11.025Z,101136
2017-06-08T17:16:39.197Z,101141
2017-06-08T17:19:07.353Z,101133
2017-06-08T17:21:35.541Z,101124
2017-06-08T17:24:03.694Z,101134
2017-06-08T17:26:31.880Z,101131
2017-06-08T17:29:00.038Z,101126
2017-06-08T17:31:28.981Z,101128
2017-06-08T17:33:57.689Z,101131
2017-06-08T17:36:25.843Z,101120
2017-06-08T17:38:54.029Z,101119
2017-06-08T17:41:22.193Z,101118
2017-06-08T17:43:51.114Z,101125
2017-06-08T17:46:19.282Z,101126
2017-06-08T17:48:47.453Z,101125
2017-06-08T17:51:15.656Z,101120
2017-06-08T17:53:43.880Z,101126
2017-06-08T17:56:12.042Z,101120
2017-06-08T17:58:40.980Z,101128
2017-06-08T18:01:09.150Z,101121
2017-06-08T18:03:37.347Z,101119
2017-06-08T18:06:05.514Z,101121
2017-06-08T18:08:33.684Z,101119
2017-06-08T18:11:02.018Z,101112
2017-06-08T18:13:30.225Z,101116
2017-06-08T18:15:58.431Z,101112
2017-06-08T18:18:26.602Z,101116
2017-06-08T18:20:54.768Z,101120
2017-06-08T18:23:22.956Z,101110
2017-06-08T18:25:51.101Z,101115
2017-06-08T18:28:19.283Z,101120
2017-06-08T18:30:47.462Z,101122
2017-06-08T18:33:15.636Z,101119
2017-06-08T18:35:43.795Z,101118
2017-06-08T18:38:11.942Z,101120
2017-06-08T18:40:40.119Z,101117
2017-06-08T18:43:08.292Z,101120
2017-06-08T18:45:36.516Z,101123
2017-06-08T18:48:04.684Z,101123
2017-06-08T18:50:32.841Z,101122
2017-06-08T18:53:01.047Z,101131
2017-06-08T18:55:29.202Z,101126
2017-06-08T18:57:57.381Z,101120
2017-06-08T19:00:25.554Z,101127
2017-06-08T19:02:53.702Z,101129
2017-06-08T19:05:21.892Z,101128
2017-06-08T19:07:50.064Z,101125
2017-06-08T19:10:18.230Z,101133
2017-06-08T19:12:47.169Z,101136
2017-06-08T19:15:15.346Z,101135
2017-06-08T19:17:43.552Z,101129
2017-06-08T19:20:11.711Z,101126
2017-06-08T19:22:39.878Z,101129
2017-06-08T19:25:08.078Z,101129
2017-06-08T19:27:36.295Z,101140
2017-06-08T19:30:04.474Z,101140
2017-06-08T19:32:32.631Z,101140
2017-06-08T19:35:01.573Z,101142
2017-06-08T19:37:29.744Z,101137
2017-06-08T19:39:58.029Z,101148
2017-06-08T19:42:26.240Z,101147
2017-06-08T19:44:54.402Z,101148
2017-06-08T19:47:22.564Z,101149
2017-06-08T19:49:50.805Z,101147
2017-06-08T19:52:18.950Z,101153
2017-06-08T19:54:47.908Z,101152
2017-06-08T19:57:16.084Z,101147
2017-06-08T19:59:44.264Z,101150
2017-06-08T20:02:12.450Z,101152
2017-06-08T20:04:40.664Z,101152
2017-06-08T20:07:08.817Z,101148
2017-06-08T20:09:37.761Z,101148
2017-06-08T20:12:05.912Z,101158
2017-06-08T20:14:34.112Z,101149
2017-06-08T20:17:02.261Z,101149
2017-06-08T20:19:30.415Z,101146
2017-06-08T20:21:59.358Z,101150
2017-06-08T20:24:27.510Z,101154
2017-06-08T20:26:55.703Z,101156
2017-06-08T20:29:23.875Z,101152
2017-06-08T20:31:52.022Z,101145
2017-06-08T20:34:20.201Z,101138
2017-06-08T20:36:48.372Z,101144
2017-06-08T20:39:16.882Z,101138
2017-06-08T20:41:45.045Z,101133
2017-06-08T20:44:13.225Z,101135
2017-06-08T20:46:41.413Z,101142
2017-06-08T20:49:09.562Z,101133
2017-06-08T20:51:37.764Z,101129
2017-06-08T20:54:05.914Z,101133
2017-06-08T20:56:34.067Z,101136
2017-06-08T20:59:02.233Z,101137
2017-06-08T21:01:31.172Z,101134
2017-06-08T21:03:59.364Z,101130
2017-06-08T21:06:27.515Z,101130
2017-06-08T21:08:55.692Z,101127
2017-06-08T21:11:23.888Z,101132
2017-06-08T21:13:52.056Z,101132
2017-06-08T21:16:20.249Z,101131
2017-06-08T21:18:48.402Z,101134
2017-06-08T21:21:16.574Z,101130
2017-06-08T21:23:44.737Z,101128
2017-06-08T21:26:12.895Z,101118
2017-06-08T21:28:41.086Z,101123
2017-06-08T21:31:09.253Z,101119
2017-06-08T21:33:37.397Z,101123
2017-06-08T21:36:06.359Z,101123
2017-06-08T21:38:34.534Z,101118
2017-06-08T21:41:02.745Z,101112
2017-06-08T21:43:30.901Z,101107
2017-06-08T21:45:59.823Z,101112
2017-06-08T21:48:28.030Z,101115
2017-06-08T21:50:56.200Z,101112
2017-06-08T21:53:24.418Z,101118
2017-06-08T21:55:53.583Z,101120
2017-06-08T21:58:21.849Z,101114
2017-06-08T22:00:50.723Z,101116
2017-06-08T22:03:18.896Z,101110
2017-06-08T22:05:47.080Z,101115
2017-06-08T22:08:16.247Z,101113
2017-06-08T22:10:44.429Z,101114
2017-06-08T22:13:12.632Z,101102
2017-06-08T22:15:40.812Z,101099
2017-06-08T22:18:09.015Z,101108
2017-06-08T22:20:37.179Z,101099
2017-06-08T22:23:05.350Z,101095
2017-06-08T22:25:33.547Z,101092
2017-06-08T22:28:01.708Z,101103
2017-06-08T22:30:29.877Z,101094
2017-06-08T22:32:58.460Z,101094
2017-06-08T22:35:26.628Z,101099
2017-06-08T22:37:54.797Z,101096
2017-06-08T22:40:23.005Z,101105
2017-06-08T22:42:51.231Z,101096
2017-06-08T22:45:19.399Z,101095
2017-06-08T22:47:47.596Z,101084
2017-06-08T22:50:15.761Z,101079
2017-06-08T22:52:43.938Z,101081
2017-06-08T22:55:12.134Z,101081
2017-06-08T22:57:40.308Z,101077
2017-06-08T23:00:08.481Z,101086
2017-06-08T23:02:36.697Z,101081
2017-06-08T23:05:05.629Z,101083
2017-06-08T23:07:33.809Z,101085
2017-06-08T23:10:02.009Z,101083
2017-06-08T23:12:30.184Z,101079
2017-06-08T23:14:58.357Z,101081
2017-06-08T23:17:26.560Z,101077
2017-06-08T23:19:55.502Z,101074
2017-06-08T23:22:23.669Z,101083
2017-06-08T23:24:51.863Z,101064
2017-06-08T23:27:20.041Z,101070
2017-06-08T23:29:48.218Z,101077
2017-06-08T23:32:16.435Z,101064
2017-06-08T23:34:44.627Z,101064
2017-06-08T23:37:12.799Z,101065
2017-06-08T23:39:40.993Z,101057
2017-06-08T23:42:09.168Z,101063
2017-06-08T23:44:37.342Z,101063
2017-06-08T23:47:05.546Z,101062
2017-06-08T23:49:33.720Z,101059
2017-06-08T23:52:01.896Z,101050
2017-06-08T23:54:30.088Z,101036
2017-06-08T23:56:59.040Z,101043
2017-06-08T23:59:27.205Z,101047
